sensor_id;sensor_type;location;lat;lon;timestamp;temperature;humidity
26081;DHT22;13991;51.174;4.438;2022-08-18T00:01:16;20.30;99.90
26081;DHT22;13991;51.174;4.438;2022-08-18T00:03:44;20.30;99.90
26081;DHT22;13991;51.174;4.438;2022-08-18T00:06:10;20.50;99.90
26081;DHT22;13991;51.174;4.438;2022-08-18T00:08:36;20.60;99.90
26081;DHT22;13991;51.174;4.438;2022-08-18T00:11:02;20.70;99.90
26081;DHT22;13991;51.174;4.438;2022-08-18T00:13:32;20.70;99.90
26081;DHT22;13991;51.174;4.438;2022-08-18T00:15:58;20.70;99.90
26081;DHT22;13991;51.174;4.438;2022-08-18T00:18:24;20.80;99.90
26081;DHT22;13991;51.174;4.438;2022-08-18T00:20:50;20.70;99.90
26081;DHT22;13991;51.174;4.438;2022-08-18T00:23:19;20.60;99.90
26081;DHT22;13991;51.174;4.438;2022-08-18T00:25:53;20.60;99.90
26081;DHT22;13991;51.174;4.438;2022-08-18T00:28:20;20.60;99.90
26081;DHT22;13991;51.174;4.438;2022-08-18T00:30:48;20.70;99.90
26081;DHT22;13991;51.174;4.438;2022-08-18T00:33:16;20.60;99.90
26081;DHT22;13991;51.174;4.438;2022-08-18T00:35:42;20.50;99.90
26081;DHT22;13991;51.174;4.438;2022-08-18T00:38:09;20.50;99.90
26081;DHT22;13991;51.174;4.438;2022-08-18T00:40:48;20.50;99.90
26081;DHT22;13991;51.174;4.438;2022-08-18T00:43:49;20.50;99.90
26081;DHT22;13991;51.174;4.438;2022-08-18T00:46:21;20.40;99.90
26081;DHT22;13991;51.174;4.438;2022-08-18T00:48:47;20.60;99.90
26081;DHT22;13991;51.174;4.438;2022-08-18T00:51:27;20.50;99.90
26081;DHT22;13991;51.174;4.438;2022-08-18T00:54:18;20.70;99.90
26081;DHT22;13991;51.174;4.438;2022-08-18T00:56:51;20.70;99.90
26081;DHT22;13991;51.174;4.438;2022-08-18T00:59:37;20.60;99.90
26081;DHT22;13991;51.174;4.438;2022-08-18T01:02:10;20.60;99.90
26081;DHT22;13991;51.174;4.438;2022-08-18T01:05:00;20.60;99.90
26081;DHT22;13991;51.174;4.438;2022-08-18T01:07:35;20.50;99.90
26081;DHT22;13991;51.174;4.438;2022-08-18T01:10:02;20.50;99.90
26081;DHT22;13991;51.174;4.438;2022-08-18T01:12:30;20.60;99.90
26081;DHT22;13991;51.174;4.438;2022-08-18T01:14:57;20.60;99.90
26081;DHT22;13991;51.174;4.438;2022-08-18T01:17:23;20.70;99.90
26081;DHT22;13991;51.174;4.438;2022-08-18T01:20:14;20.70;99.90
26081;DHT22;13991;51.174;4.438;2022-08-18T01:23:11;20.70;99.90
26081;DHT22;13991;51.174;4.438;2022-08-18T01:25:37;20.70;99.90
26081;DHT22;13991;51.174;4.438;2022-08-18T01:28:23;20.80;99.90
26081;DHT22;13991;51.174;4.438;2022-08-18T01:30:51;20.80;99.90
26081;DHT22;13991;51.174;4.438;2022-08-18T01:33:24;20.80;99.90
26081;DHT22;13991;51.174;4.438;2022-08-18T01:35:52;20.80;99.90
26081;DHT22;13991;51.174;4.438;2022-08-18T01:38:20;20.80;99.90
26081;DHT22;13991;51.174;4.438;2022-08-18T01:40:47;20.80;99.90
26081;DHT22;13991;51.174;4.438;2022-08-18T01:43:13;20.80;99.90
26081;DHT22;13991;51.174;4.438;2022-08-18T01:45:40;20.80;99.90
26081;DHT22;13991;51.174;4.438;2022-08-18T01:48:06;20.80;99.90
26081;DHT22;13991;51.174;4.438;2022-08-18T01:50:34;20.80;99.90
26081;DHT22;13991;51.174;4.438;2022-08-18T01:53:01;20.80;99.90
26081;DHT22;13991;51.174;4.438;2022-08-18T01:55:39;20.80;99.90
26081;DHT22;13991;51.174;4.438;2022-08-18T01:58:08;20.70;99.90
26081;DHT22;13991;51.174;4.438;2022-08-18T02:00:34;20.70;99.90
26081;DHT22;13991;51.174;4.438;2022-08-18T02:03:03;20.70;99.90
26081;DHT22;13991;51.174;4.438;2022-08-18T02:05:42;20.70;99.90
26081;DHT22;13991;51.174;4.438;2022-08-18T02:08:09;20.70;99.90
26081;DHT22;13991;51.174;4.438;2022-08-18T02:10:37;20.60;99.90
26081;DHT22;13991;51.174;4.438;2022-08-18T02:13:04;20.60;99.90
26081;DHT22;13991;51.174;4.438;2022-08-18T02:15:30;20.70;99.90
26081;DHT22;13991;51.174;4.438;2022-08-18T02:17:55;20.70;99.90
26081;DHT22;13991;51.174;4.438;2022-08-18T02:20:21;20.60;99.90
26081;DHT22;13991;51.174;4.438;2022-08-18T02:22:47;20.60;99.90
26081;DHT22;13991;51.174;4.438;2022-08-18T02:25:15;20.50;99.90
26081;DHT22;13991;51.174;4.438;2022-08-18T02:27:41;20.40;99.90
26081;DHT22;13991;51.174;4.438;2022-08-18T02:30:09;20.40;99.90
26081;DHT22;13991;51.174;4.438;2022-08-18T02:32:35;20.40;99.90
26081;DHT22;13991;51.174;4.438;2022-08-18T02:35:02;20.40;99.90
26081;DHT22;13991;51.174;4.438;2022-08-18T02:37:28;20.40;99.90
26081;DHT22;13991;51.174;4.438;2022-08-18T02:39:55;20.30;99.90
26081;DHT22;13991;51.174;4.438;2022-08-18T02:42:21;20.20;99.90
26081;DHT22;13991;51.174;4.438;2022-08-18T02:44:47;20.20;99.90
26081;DHT22;13991;51.174;4.438;2022-08-18T02:47:13;20.30;99.90
26081;DHT22;13991;51.174;4.438;2022-08-18T02:49:39;20.30;99.90
26081;DHT22;13991;51.174;4.438;2022-08-18T02:52:05;20.20;99.90
26081;DHT22;13991;51.174;4.438;2022-08-18T02:54:31;20.20;99.90
26081;DHT22;13991;51.174;4.438;2022-08-18T02:56:56;20.20;99.90
26081;DHT22;13991;51.174;4.438;2022-08-18T02:59:24;20.10;99.90
26081;DHT22;13991;51.174;4.438;2022-08-18T03:01:54;20.10;99.90
26081;DHT22;13991;51.174;4.438;2022-08-18T03:04:27;19.90;99.90
26081;DHT22;13991;51.174;4.438;2022-08-18T03:06:53;19.90;99.90
26081;DHT22;13991;51.174;4.438;2022-08-18T03:09:20;19.80;99.90
26081;DHT22;13991;51.174;4.438;2022-08-18T03:11:46;19.90;99.90
26081;DHT22;13991;51.174;4.438;2022-08-18T03:14:13;20.00;99.90
26081;DHT22;13991;51.174;4.438;2022-08-18T03:16:44;20.00;99.90
26081;DHT22;13991;51.174;4.438;2022-08-18T03:19:10;20.00;99.90
26081;DHT22;13991;51.174;4.438;2022-08-18T03:21:39;20.00;99.90
26081;DHT22;13991;51.174;4.438;2022-08-18T03:24:04;20.00;99.90
26081;DHT22;13991;51.174;4.438;2022-08-18T03:26:31;20.00;99.90
26081;DHT22;13991;51.174;4.438;2022-08-18T03:28:59;20.00;99.90
26081;DHT22;13991;51.174;4.438;2022-08-18T03:31:27;20.00;99.90
26081;DHT22;13991;51.174;4.438;2022-08-18T03:33:54;19.90;99.90
26081;DHT22;13991;51.174;4.438;2022-08-18T03:36:23;19.90;99.90
26081;DHT22;13991;51.174;4.438;2022-08-18T03:38:50;19.90;99.90
26081;DHT22;13991;51.174;4.438;2022-08-18T03:41:19;19.90;99.90
26081;DHT22;13991;51.174;4.438;2022-08-18T03:43:47;19.90;99.90
26081;DHT22;13991;51.174;4.438;2022-08-18T03:46:14;19.90;99.90
26081;DHT22;13991;51.174;4.438;2022-08-18T03:48:41;19.80;99.90
26081;DHT22;13991;51.174;4.438;2022-08-18T03:51:12;19.80;99.90
26081;DHT22;13991;51.174;4.438;2022-08-18T03:53:39;19.80;99.90
26081;DHT22;13991;51.174;4.438;2022-08-18T03:56:14;19.70;99.90
26081;DHT22;13991;51.174;4.438;2022-08-18T03:58:45;19.60;99.90
26081;DHT22;13991;51.174;4.438;2022-08-18T04:01:16;19.60;99.90
26081;DHT22;13991;51.174;4.438;2022-08-18T04:03:44;19.60;99.90
26081;DHT22;13991;51.174;4.438;2022-08-18T04:06:18;19.60;99.90
26081;DHT22;13991;51.174;4.438;2022-08-18T04:08:44;19.60;99.90
26081;DHT22;13991;51.174;4.438;2022-08-18T04:11:13;19.60;99.90
26081;DHT22;13991;51.174;4.438;2022-08-18T04:13:39;19.70;99.90
26081;DHT22;13991;51.174;4.438;2022-08-18T04:16:05;19.70;99.90
26081;DHT22;13991;51.174;4.438;2022-08-18T04:18:31;19.70;99.90
26081;DHT22;13991;51.174;4.438;2022-08-18T04:21:01;19.80;99.90
26081;DHT22;13991;51.174;4.438;2022-08-18T04:23:27;19.80;99.90
26081;DHT22;13991;51.174;4.438;2022-08-18T04:25:58;19.70;99.90
26081;DHT22;13991;51.174;4.438;2022-08-18T04:28:24;19.70;99.90
26081;DHT22;13991;51.174;4.438;2022-08-18T04:30:50;19.70;99.90
26081;DHT22;13991;51.174;4.438;2022-08-18T04:33:16;19.70;99.90
26081;DHT22;13991;51.174;4.438;2022-08-18T04:35:42;19.60;99.90
26081;DHT22;13991;51.174;4.438;2022-08-18T04:38:09;19.70;99.90
26081;DHT22;13991;51.174;4.438;2022-08-18T04:40:35;19.80;99.90
26081;DHT22;13991;51.174;4.438;2022-08-18T04:43:01;19.80;99.90
26081;DHT22;13991;51.174;4.438;2022-08-18T04:45:28;19.70;99.90
26081;DHT22;13991;51.174;4.438;2022-08-18T04:47:53;19.60;99.90
26081;DHT22;13991;51.174;4.438;2022-08-18T04:50:20;19.60;99.90
26081;DHT22;13991;51.174;4.438;2022-08-18T04:52:46;19.70;99.90
26081;DHT22;13991;51.174;4.438;2022-08-18T04:55:30;19.70;99.90
26081;DHT22;13991;51.174;4.438;2022-08-18T04:57:56;19.70;99.90
26081;DHT22;13991;51.174;4.438;2022-08-18T05:00:25;19.80;99.90
26081;DHT22;13991;51.174;4.438;2022-08-18T05:02:51;19.80;99.90
26081;DHT22;13991;51.174;4.438;2022-08-18T05:05:19;19.70;99.90
26081;DHT22;13991;51.174;4.438;2022-08-18T05:07:45;19.80;99.90
26081;DHT22;13991;51.174;4.438;2022-08-18T05:10:11;19.80;99.90
26081;DHT22;13991;51.174;4.438;2022-08-18T05:12:38;19.80;99.90
26081;DHT22;13991;51.174;4.438;2022-08-18T05:15:08;19.80;99.90
26081;DHT22;13991;51.174;4.438;2022-08-18T05:17:36;19.80;99.90
26081;DHT22;13991;51.174;4.438;2022-08-18T05:20:07;19.80;99.90
26081;DHT22;13991;51.174;4.438;2022-08-18T05:22:41;19.70;99.90
26081;DHT22;13991;51.174;4.438;2022-08-18T05:25:09;19.70;99.90
26081;DHT22;13991;51.174;4.438;2022-08-18T05:27:39;19.80;99.90
26081;DHT22;13991;51.174;4.438;2022-08-18T05:30:09;19.80;99.90
26081;DHT22;13991;51.174;4.438;2022-08-18T05:32:43;19.90;99.90
26081;DHT22;13991;51.174;4.438;2022-08-18T05:35:12;19.90;99.90
26081;DHT22;13991;51.174;4.438;2022-08-18T05:40:26;20.00;99.90
26081;DHT22;13991;51.174;4.438;2022-08-18T05:42:55;20.00;99.90
26081;DHT22;13991;51.174;4.438;2022-08-18T05:45:24;20.10;99.90
26081;DHT22;13991;51.174;4.438;2022-08-18T05:47:50;20.10;99.90
26081;DHT22;13991;51.174;4.438;2022-08-18T05:50:21;20.10;99.90
26081;DHT22;13991;51.174;4.438;2022-08-18T05:53:08;20.10;99.90
26081;DHT22;13991;51.174;4.438;2022-08-18T05:56:00;20.00;99.90
26081;DHT22;13991;51.174;4.438;2022-08-18T05:58:49;20.00;99.90
26081;DHT22;13991;51.174;4.438;2022-08-18T06:01:24;20.10;99.90
26081;DHT22;13991;51.174;4.438;2022-08-18T06:04:00;20.20;99.90
26081;DHT22;13991;51.174;4.438;2022-08-18T06:06:27;20.40;99.90
26081;DHT22;13991;51.174;4.438;2022-08-18T06:11:37;20.80;99.90
26081;DHT22;13991;51.174;4.438;2022-08-18T06:14:03;20.90;99.90
26081;DHT22;13991;51.174;4.438;2022-08-18T06:22:17;21.20;99.90
26081;DHT22;13991;51.174;4.438;2022-08-18T06:24:59;21.10;99.90
26081;DHT22;13991;51.174;4.438;2022-08-18T06:30:22;21.20;99.90
26081;DHT22;13991;51.174;4.438;2022-08-18T06:41:07;21.30;99.90
26081;DHT22;13991;51.174;4.438;2022-08-18T06:43:37;21.30;99.90
26081;DHT22;13991;51.174;4.438;2022-08-18T06:46:17;21.30;99.90
26081;DHT22;13991;51.174;4.438;2022-08-18T06:48:57;21.40;99.90
26081;DHT22;13991;51.174;4.438;2022-08-18T06:51:26;21.40;99.90
26081;DHT22;13991;51.174;4.438;2022-08-18T06:54:06;21.50;99.90
26081;DHT22;13991;51.174;4.438;2022-08-18T06:59:22;21.40;99.90
26081;DHT22;13991;51.174;4.438;2022-08-18T07:02:13;21.20;99.90
26081;DHT22;13991;51.174;4.438;2022-08-18T07:05:04;21.40;99.90
26081;DHT22;13991;51.174;4.438;2022-08-18T07:07:36;21.50;99.90
26081;DHT22;13991;51.174;4.438;2022-08-18T07:10:29;21.60;99.90
26081;DHT22;13991;51.174;4.438;2022-08-18T07:13:28;21.80;99.90
26081;DHT22;13991;51.174;4.438;2022-08-18T07:16:03;22.00;99.90
26081;DHT22;13991;51.174;4.438;2022-08-18T07:18:39;22.10;99.90
26081;DHT22;13991;51.174;4.438;2022-08-18T07:21:05;22.10;99.90
26081;DHT22;13991;51.174;4.438;2022-08-18T07:23:38;21.90;99.90
26081;DHT22;13991;51.174;4.438;2022-08-18T07:26:11;21.60;99.90
26081;DHT22;13991;51.174;4.438;2022-08-18T07:28:39;21.70;99.90
26081;DHT22;13991;51.174;4.438;2022-08-18T07:33:39;22.20;99.90
26081;DHT22;13991;51.174;4.438;2022-08-18T07:36:07;22.50;99.90
26081;DHT22;13991;51.174;4.438;2022-08-18T07:38:49;22.50;99.90
26081;DHT22;13991;51.174;4.438;2022-08-18T07:43:52;22.60;99.90
26081;DHT22;13991;51.174;4.438;2022-08-18T07:46:33;22.70;99.90
26081;DHT22;13991;51.174;4.438;2022-08-18T07:49:00;22.70;99.90
26081;DHT22;13991;51.174;4.438;2022-08-18T07:51:46;22.80;99.90
26081;DHT22;13991;51.174;4.438;2022-08-18T07:57:44;22.60;99.90
26081;DHT22;13991;51.174;4.438;2022-08-18T08:00:22;22.40;99.90
26081;DHT22;13991;51.174;4.438;2022-08-18T08:05:42;22.40;99.90
26081;DHT22;13991;51.174;4.438;2022-08-18T08:08:18;22.80;99.90
26081;DHT22;13991;51.174;4.438;2022-08-18T08:10:59;22.80;99.90
26081;DHT22;13991;51.174;4.438;2022-08-18T08:19:28;22.50;99.90
26081;DHT22;13991;51.174;4.438;2022-08-18T08:24:52;22.40;99.90
26081;DHT22;13991;51.174;4.438;2022-08-18T08:27:23;22.50;99.90
26081;DHT22;13991;51.174;4.438;2022-08-18T08:30:04;22.70;99.90
26081;DHT22;13991;51.174;4.438;2022-08-18T08:32:34;22.80;99.90
26081;DHT22;13991;51.174;4.438;2022-08-18T08:37:37;23.00;99.90
26081;DHT22;13991;51.174;4.438;2022-08-18T08:42:49;22.50;99.90
26081;DHT22;13991;51.174;4.438;2022-08-18T08:45:33;22.50;99.90
26081;DHT22;13991;51.174;4.438;2022-08-18T08:48:01;22.80;99.90
26081;DHT22;13991;51.174;4.438;2022-08-18T08:50:34;22.90;99.90
26081;DHT22;13991;51.174;4.438;2022-08-18T08:53:06;23.00;99.90
26081;DHT22;13991;51.174;4.438;2022-08-18T08:55:36;23.00;99.90
26081;DHT22;13991;51.174;4.438;2022-08-18T08:58:15;23.20;99.90
26081;DHT22;13991;51.174;4.438;2022-08-18T09:00:44;23.10;99.90
26081;DHT22;13991;51.174;4.438;2022-08-18T09:06:02;23.00;99.90
26081;DHT22;13991;51.174;4.438;2022-08-18T09:08:37;22.80;99.90
26081;DHT22;13991;51.174;4.438;2022-08-18T09:24:45;23.20;99.90
26081;DHT22;13991;51.174;4.438;2022-08-18T09:27:26;23.20;99.90
26081;DHT22;13991;51.174;4.438;2022-08-18T09:29:57;23.20;99.90
26081;DHT22;13991;51.174;4.438;2022-08-18T09:37:46;22.80;99.90
26081;DHT22;13991;51.174;4.438;2022-08-18T09:40:34;23.00;99.90
26081;DHT22;13991;51.174;4.438;2022-08-18T09:45:59;22.90;99.90
26081;DHT22;13991;51.174;4.438;2022-08-18T09:51:20;23.10;99.90
26081;DHT22;13991;51.174;4.438;2022-08-18T09:59:02;23.20;99.90
26081;DHT22;13991;51.174;4.438;2022-08-18T10:06:42;23.20;99.90
26081;DHT22;13991;51.174;4.438;2022-08-18T10:11:54;23.50;99.90
26081;DHT22;13991;51.174;4.438;2022-08-18T10:20:26;23.80;99.90
26081;DHT22;13991;51.174;4.438;2022-08-18T10:22:55;24.00;99.90
26081;DHT22;13991;51.174;4.438;2022-08-18T10:27:58;24.10;99.90
26081;DHT22;13991;51.174;4.438;2022-08-18T10:32:59;24.20;99.90
26081;DHT22;13991;51.174;4.438;2022-08-18T10:38:03;24.40;99.90
26081;DHT22;13991;51.174;4.438;2022-08-18T10:40:31;24.40;99.90
26081;DHT22;13991;51.174;4.438;2022-08-18T10:45:29;24.50;99.90
26081;DHT22;13991;51.174;4.438;2022-08-18T10:50:41;24.60;99.90
26081;DHT22;13991;51.174;4.438;2022-08-18T10:53:43;24.80;99.90
26081;DHT22;13991;51.174;4.438;2022-08-18T11:04:46;25.10;99.90
26081;DHT22;13991;51.174;4.438;2022-08-18T11:07:24;25.00;99.90
26081;DHT22;13991;51.174;4.438;2022-08-18T11:09:53;25.00;99.90
26081;DHT22;13991;51.174;4.438;2022-08-18T11:15:07;25.30;99.90
26081;DHT22;13991;51.174;4.438;2022-08-18T11:20:08;25.20;99.90
26081;DHT22;13991;51.174;4.438;2022-08-18T11:22:36;25.30;99.90
26081;DHT22;13991;51.174;4.438;2022-08-18T11:25:16;25.10;99.90
26081;DHT22;13991;51.174;4.438;2022-08-18T11:27:45;25.20;99.90
26081;DHT22;13991;51.174;4.438;2022-08-18T11:30:11;25.20;99.90
26081;DHT22;13991;51.174;4.438;2022-08-18T11:32:38;25.20;99.90
26081;DHT22;13991;51.174;4.438;2022-08-18T11:35:14;25.10;99.90
26081;DHT22;13991;51.174;4.438;2022-08-18T11:58:46;25.00;99.90
26081;DHT22;13991;51.174;4.438;2022-08-18T12:01:35;25.10;99.90
26081;DHT22;13991;51.174;4.438;2022-08-18T12:07:02;25.30;99.90
26081;DHT22;13991;51.174;4.438;2022-08-18T12:12:06;25.60;99.90
26081;DHT22;13991;51.174;4.438;2022-08-18T12:15:03;25.60;99.90
26081;DHT22;13991;51.174;4.438;2022-08-18T12:17:30;25.80;99.90
26081;DHT22;13991;51.174;4.438;2022-08-18T12:19:56;26.20;99.90
26081;DHT22;13991;51.174;4.438;2022-08-18T12:22:29;26.30;99.90
26081;DHT22;13991;51.174;4.438;2022-08-18T12:24:59;26.50;99.90
26081;DHT22;13991;51.174;4.438;2022-08-18T12:27:26;26.20;99.90
26081;DHT22;13991;51.174;4.438;2022-08-18T12:29:53;25.90;99.90
26081;DHT22;13991;51.174;4.438;2022-08-18T12:32:22;25.90;99.90
26081;DHT22;13991;51.174;4.438;2022-08-18T12:34:48;25.60;99.90
26081;DHT22;13991;51.174;4.438;2022-08-18T12:37:19;25.70;99.90
26081;DHT22;13991;51.174;4.438;2022-08-18T12:39:46;25.80;99.90
26081;DHT22;13991;51.174;4.438;2022-08-18T12:42:12;25.90;99.90
26081;DHT22;13991;51.174;4.438;2022-08-18T12:44:38;25.80;99.90
26081;DHT22;13991;51.174;4.438;2022-08-18T12:47:11;25.90;99.90
26081;DHT22;13991;51.174;4.438;2022-08-18T12:49:37;26.10;99.90
26081;DHT22;13991;51.174;4.438;2022-08-18T12:52:03;26.00;99.90
26081;DHT22;13991;51.174;4.438;2022-08-18T12:54:29;26.10;99.90
26081;DHT22;13991;51.174;4.438;2022-08-18T12:56:57;26.30;99.90
26081;DHT22;13991;51.174;4.438;2022-08-18T12:59:23;26.70;99.90
26081;DHT22;13991;51.174;4.438;2022-08-18T13:01:49;26.70;99.90
26081;DHT22;13991;51.174;4.438;2022-08-18T13:04:15;26.90;99.90
26081;DHT22;13991;51.174;4.438;2022-08-18T13:06:50;27.30;99.90
26081;DHT22;13991;51.174;4.438;2022-08-18T13:09:18;27.60;99.90
26081;DHT22;13991;51.174;4.438;2022-08-18T13:11:43;27.80;99.90
26081;DHT22;13991;51.174;4.438;2022-08-18T13:14:09;27.90;99.90
26081;DHT22;13991;51.174;4.438;2022-08-18T13:16:39;28.10;99.90
26081;DHT22;13991;51.174;4.438;2022-08-18T13:19:06;28.20;99.90
26081;DHT22;13991;51.174;4.438;2022-08-18T13:21:32;28.10;99.90
26081;DHT22;13991;51.174;4.438;2022-08-18T13:23:58;28.00;99.90
26081;DHT22;13991;51.174;4.438;2022-08-18T13:26:31;28.00;99.90
26081;DHT22;13991;51.174;4.438;2022-08-18T13:28:57;28.20;99.90
26081;DHT22;13991;51.174;4.438;2022-08-18T13:31:24;28.50;99.70
26081;DHT22;13991;51.174;4.438;2022-08-18T13:33:51;28.70;99.90
26081;DHT22;13991;51.174;4.438;2022-08-18T13:36:17;28.60;99.00
26081;DHT22;13991;51.174;4.438;2022-08-18T13:38:43;28.60;99.40
26081;DHT22;13991;51.174;4.438;2022-08-18T13:41:09;28.20;98.10
26081;DHT22;13991;51.174;4.438;2022-08-18T13:43:38;27.60;99.10
26081;DHT22;13991;51.174;4.438;2022-08-18T13:46:12;27.20;99.90
26081;DHT22;13991;51.174;4.438;2022-08-18T13:48:38;26.60;99.90
26081;DHT22;13991;51.174;4.438;2022-08-18T13:51:06;26.40;99.90
26081;DHT22;13991;51.174;4.438;2022-08-18T13:53:35;26.20;99.90
26081;DHT22;13991;51.174;4.438;2022-08-18T13:56:01;26.20;99.90
26081;DHT22;13991;51.174;4.438;2022-08-18T13:58:28;26.10;99.90
26081;DHT22;13991;51.174;4.438;2022-08-18T14:01:02;26.20;99.90
26081;DHT22;13991;51.174;4.438;2022-08-18T14:03:28;26.20;99.90
26081;DHT22;13991;51.174;4.438;2022-08-18T14:05:54;26.00;99.90
26081;DHT22;13991;51.174;4.438;2022-08-18T14:08:23;26.00;99.90
26081;DHT22;13991;51.174;4.438;2022-08-18T14:10:55;26.00;99.90
26081;DHT22;13991;51.174;4.438;2022-08-18T14:13:21;26.10;99.90
26081;DHT22;13991;51.174;4.438;2022-08-18T14:15:47;26.40;99.90
26081;DHT22;13991;51.174;4.438;2022-08-18T14:18:14;26.50;99.90
26081;DHT22;13991;51.174;4.438;2022-08-18T14:20:39;26.80;99.90
26081;DHT22;13991;51.174;4.438;2022-08-18T14:23:24;27.10;99.90
26081;DHT22;13991;51.174;4.438;2022-08-18T14:26:09;27.00;99.90
26081;DHT22;13991;51.174;4.438;2022-08-18T14:28:54;27.20;99.90
26081;DHT22;13991;51.174;4.438;2022-08-18T14:31:20;27.30;99.10
26081;DHT22;13991;51.174;4.438;2022-08-18T14:33:46;27.50;99.60
26081;DHT22;13991;51.174;4.438;2022-08-18T14:36:12;27.50;99.20
26081;DHT22;13991;51.174;4.438;2022-08-18T14:38:38;27.40;99.50
26081;DHT22;13991;51.174;4.438;2022-08-18T14:41:10;27.90;99.70
26081;DHT22;13991;51.174;4.438;2022-08-18T14:43:36;28.10;99.90
26081;DHT22;13991;51.174;4.438;2022-08-18T14:46:03;28.00;98.90
26081;DHT22;13991;51.174;4.438;2022-08-18T14:48:30;27.90;99.40
26081;DHT22;13991;51.174;4.438;2022-08-18T14:50:57;27.80;99.00
26081;DHT22;13991;51.174;4.438;2022-08-18T14:53:26;27.80;98.90
26081;DHT22;13991;51.174;4.438;2022-08-18T14:55:54;27.90;98.90
26081;DHT22;13991;51.174;4.438;2022-08-18T14:58:25;27.50;99.80
26081;DHT22;13991;51.174;4.438;2022-08-18T15:00:52;27.60;99.90
26081;DHT22;13991;51.174;4.438;2022-08-18T15:03:20;27.70;99.50
26081;DHT22;13991;51.174;4.438;2022-08-18T15:05:45;27.70;99.70
26081;DHT22;13991;51.174;4.438;2022-08-18T15:08:11;27.60;99.50
26081;DHT22;13991;51.174;4.438;2022-08-18T15:10:37;27.60;99.90
26081;DHT22;13991;51.174;4.438;2022-08-18T15:13:03;27.60;98.60
26081;DHT22;13991;51.174;4.438;2022-08-18T15:15:29;27.60;97.60
26081;DHT22;13991;51.174;4.438;2022-08-18T15:17:55;27.50;97.70
26081;DHT22;13991;51.174;4.438;2022-08-18T15:20:25;27.40;97.70
26081;DHT22;13991;51.174;4.438;2022-08-18T15:22:51;27.70;97.40
26081;DHT22;13991;51.174;4.438;2022-08-18T15:25:35;28.00;96.60
26081;DHT22;13991;51.174;4.438;2022-08-18T15:28:07;28.00;95.90
26081;DHT22;13991;51.174;4.438;2022-08-18T15:30:33;27.70;96.10
26081;DHT22;13991;51.174;4.438;2022-08-18T15:33:02;27.70;96.60
26081;DHT22;13991;51.174;4.438;2022-08-18T15:35:28;27.70;97.30
26081;DHT22;13991;51.174;4.438;2022-08-18T15:37:55;27.60;97.40
26081;DHT22;13991;51.174;4.438;2022-08-18T15:40:23;27.40;97.10
26081;DHT22;13991;51.174;4.438;2022-08-18T15:42:53;27.30;97.80
26081;DHT22;13991;51.174;4.438;2022-08-18T15:45:40;27.40;98.70
26081;DHT22;13991;51.174;4.438;2022-08-18T15:48:09;27.50;98.40
26081;DHT22;13991;51.174;4.438;2022-08-18T15:50:35;27.10;99.10
26081;DHT22;13991;51.174;4.438;2022-08-18T15:53:02;27.10;99.50
26081;DHT22;13991;51.174;4.438;2022-08-18T15:55:30;26.80;99.70
26081;DHT22;13991;51.174;4.438;2022-08-18T15:57:56;26.70;99.90
26081;DHT22;13991;51.174;4.438;2022-08-18T16:00:24;26.80;99.90
26081;DHT22;13991;51.174;4.438;2022-08-18T16:02:53;26.80;99.90
26081;DHT22;13991;51.174;4.438;2022-08-18T16:05:22;26.80;99.90
26081;DHT22;13991;51.174;4.438;2022-08-18T16:07:49;26.90;99.90
26081;DHT22;13991;51.174;4.438;2022-08-18T16:10:17;27.10;99.90
26081;DHT22;13991;51.174;4.438;2022-08-18T16:12:44;27.20;99.90
26081;DHT22;13991;51.174;4.438;2022-08-18T16:15:10;27.30;99.90
26081;DHT22;13991;51.174;4.438;2022-08-18T16:17:36;27.40;99.90
26081;DHT22;13991;51.174;4.438;2022-08-18T16:20:04;27.40;99.90
26081;DHT22;13991;51.174;4.438;2022-08-18T16:22:29;27.60;99.90
26081;DHT22;13991;51.174;4.438;2022-08-18T16:24:57;27.70;99.90
26081;DHT22;13991;51.174;4.438;2022-08-18T16:27:24;27.90;99.60
26081;DHT22;13991;51.174;4.438;2022-08-18T16:29:52;28.00;99.40
26081;DHT22;13991;51.174;4.438;2022-08-18T16:32:17;28.00;99.40
26081;DHT22;13991;51.174;4.438;2022-08-18T16:34:44;27.90;99.10
26081;DHT22;13991;51.174;4.438;2022-08-18T16:37:09;27.70;99.80
26081;DHT22;13991;51.174;4.438;2022-08-18T16:39:35;27.60;99.90
26081;DHT22;13991;51.174;4.438;2022-08-18T16:42:01;27.50;99.90
26081;DHT22;13991;51.174;4.438;2022-08-18T16:44:29;27.40;99.90
26081;DHT22;13991;51.174;4.438;2022-08-18T16:46:58;27.50;99.90
26081;DHT22;13991;51.174;4.438;2022-08-18T16:49:27;27.40;99.90
26081;DHT22;13991;51.174;4.438;2022-08-18T16:51:53;27.30;99.90
26081;DHT22;13991;51.174;4.438;2022-08-18T16:54:19;27.30;99.90
26081;DHT22;13991;51.174;4.438;2022-08-18T16:56:44;27.30;99.90
26081;DHT22;13991;51.174;4.438;2022-08-18T16:59:10;27.10;99.90
26081;DHT22;13991;51.174;4.438;2022-08-18T17:01:54;27.10;99.90
26081;DHT22;13991;51.174;4.438;2022-08-18T17:04:39;27.10;99.90
26081;DHT22;13991;51.174;4.438;2022-08-18T17:07:05;27.20;99.90
26081;DHT22;13991;51.174;4.438;2022-08-18T17:09:33;27.10;99.90
26081;DHT22;13991;51.174;4.438;2022-08-18T17:11:59;27.10;99.90
26081;DHT22;13991;51.174;4.438;2022-08-18T17:14:28;26.90;99.90
26081;DHT22;13991;51.174;4.438;2022-08-18T17:16:55;27.00;99.90
26081;DHT22;13991;51.174;4.438;2022-08-18T17:19:25;26.90;99.90
26081;DHT22;13991;51.174;4.438;2022-08-18T17:21:51;27.00;99.90
26081;DHT22;13991;51.174;4.438;2022-08-18T17:24:18;27.20;99.90
26081;DHT22;13991;51.174;4.438;2022-08-18T17:32:24;27.90;99.70
26081;DHT22;13991;51.174;4.438;2022-08-18T17:34:59;28.00;99.50
26081;DHT22;13991;51.174;4.438;2022-08-18T17:37:28;27.90;99.90
26081;DHT22;13991;51.174;4.438;2022-08-18T17:40:06;27.90;99.30
26081;DHT22;13991;51.174;4.438;2022-08-18T17:42:33;27.90;99.50
26081;DHT22;13991;51.174;4.438;2022-08-18T17:45:09;27.60;99.60
26081;DHT22;13991;51.174;4.438;2022-08-18T17:48:09;27.30;99.90
26081;DHT22;13991;51.174;4.438;2022-08-18T17:51:15;27.30;99.90
26081;DHT22;13991;51.174;4.438;2022-08-18T17:54:16;27.40;99.90
26081;DHT22;13991;51.174;4.438;2022-08-18T17:57:05;27.40;99.90
26081;DHT22;13991;51.174;4.438;2022-08-18T18:02:21;26.70;99.90
26081;DHT22;13991;51.174;4.438;2022-08-18T18:04:48;26.50;99.90
26081;DHT22;13991;51.174;4.438;2022-08-18T18:07:51;26.10;99.90
26081;DHT22;13991;51.174;4.438;2022-08-18T18:10:25;26.00;99.90
26081;DHT22;13991;51.174;4.438;2022-08-18T18:15:56;26.10;99.90
26081;DHT22;13991;51.174;4.438;2022-08-18T18:18:29;26.10;99.90
26081;DHT22;13991;51.174;4.438;2022-08-18T18:23:28;25.90;99.90
26081;DHT22;13991;51.174;4.438;2022-08-18T18:25:54;25.80;99.90
26081;DHT22;13991;51.174;4.438;2022-08-18T18:28:32;25.70;99.90
26081;DHT22;13991;51.174;4.438;2022-08-18T18:31:15;25.60;99.90
26081;DHT22;13991;51.174;4.438;2022-08-18T18:33:41;25.60;99.90
26081;DHT22;13991;51.174;4.438;2022-08-18T18:36:07;25.40;99.90